createdAt,value
2022-08-05T00:01:27.822Z,56.04
2022-08-05T00:06:35.977Z,56.67
2022-08-05T00:11:49.049Z,56.55
2022-08-05T00:16:54.484Z,56.60
2022-08-05T00:21:57.809Z,56.93
2022-08-05T00:27:01.793Z,56.85
2022-08-05T00:32:15.003Z,56.99
2022-08-05T00:37:18.963Z,56.85
2022-08-05T00:42:32.641Z,57.28
2022-08-05T00:47:57.229Z,57.33
2022-08-05T00:53:01.518Z,57.83
2022-08-05T00:58:05.466Z,57.65
2022-08-05T01:03:22.558Z,57.83
2022-08-05T01:08:41.291Z,57.70
2022-08-05T01:13:59.175Z,57.85
2022-08-05T01:19:14.335Z,58.16
2022-08-05T01:24:35.082Z,58.21
2022-08-05T01:29:46.397Z,58.00
2022-08-05T01:34:54.726Z,58.19
2022-08-05T01:39:59.909Z,58.67
2022-08-05T01:45:08.251Z,58.99
2022-08-05T01:50:15.972Z,58.93
2022-08-05T01:55:23.702Z,58.79
2022-08-05T02:00:31.076Z,58.88
2022-08-05T02:05:37.928Z,58.96
2022-08-05T02:10:51.521Z,58.78
2022-08-05T02:16:04.924Z,58.61
2022-08-05T02:21:14.950Z,58.52
2022-08-05T02:26:26.505Z,58.23
2022-08-05T02:31:34.981Z,58.14
2022-08-05T02:36:43.782Z,58.06
2022-08-05T02:42:01.294Z,57.82
2022-08-05T02:47:09.260Z,57.27
2022-08-05T02:52:30.132Z,57.20
2022-08-05T02:58:11.119Z,56.34
2022-08-05T03:03:00.081Z,55.90
2022-08-05T03:08:08.769Z,55.47
2022-08-05T03:13:17.149Z,54.69
2022-08-05T03:18:30.087Z,53.99
2022-08-05T03:23:35.155Z,53.46
2022-08-05T03:28:41.928Z,52.54
2022-08-05T03:33:53.038Z,51.65
2022-08-05T03:38:56.752Z,50.69
2022-08-05T03:44:10.196Z,50.29
2022-08-05T03:49:16.857Z,50.79
2022-08-05T03:55:06.865Z,50.05
2022-08-05T03:59:59.489Z,46.79
2022-08-05T04:05:10.145Z,40.21
2022-08-05T04:10:14.099Z,41.62
2022-08-05T04:15:21.124Z,43.89
2022-08-05T04:20:29.542Z,44.86
2022-08-05T04:25:57.096Z,44.93
2022-08-05T04:30:58.704Z,44.76
2022-08-05T04:36:46.241Z,45.79
2022-08-05T04:41:37.744Z,46.38
2022-08-05T04:46:42.219Z,47.12
2022-08-05T04:52:00.215Z,47.13
2022-08-05T04:57:04.029Z,47.41
2022-08-05T05:02:41.368Z,47.09
2022-08-05T05:07:35.553Z,46.61
2022-08-05T05:12:39.325Z,46.86
2022-08-05T05:17:56.658Z,46.02
2022-08-05T05:23:08.423Z,45.04
2022-08-05T05:28:24.877Z,42.58
2022-08-05T05:33:28.289Z,37.06
2022-08-05T05:38:48.109Z,35.49
2022-08-05T05:43:58.579Z,37.33
2022-08-05T05:49:06.461Z,38.97
2022-08-05T05:54:49.968Z,39.64
2022-08-05T05:59:50.502Z,40.32
2022-08-05T06:04:56.192Z,39.78
2022-08-05T06:10:10.860Z,40.03
2022-08-05T06:15:24.204Z,35.59
2022-08-05T06:20:28.045Z,30.62
2022-08-05T06:26:13.208Z,24.44
2022-08-05T06:30:57.169Z,22.32
2022-08-05T06:36:07.208Z,20.83
2022-08-05T06:41:14.805Z,18.13
2022-08-05T06:46:18.286Z,18.89
2022-08-05T06:51:29.422Z,20.14
2022-08-05T06:56:35.279Z,22.22
2022-08-05T07:01:40.545Z,20.80
2022-08-05T07:06:45.592Z,18.73
2022-08-05T07:11:55.944Z,16.91
2022-08-05T07:18:01.761Z,16.14
2022-08-05T07:22:30.239Z,15.71
2022-08-05T07:27:57.742Z,15.39
2022-08-05T07:32:58.602Z,14.30
2022-08-05T07:38:01.999Z,13.79
2022-08-05T07:43:14.451Z,14.09
2022-08-05T07:49:00.468Z,14.25
2022-08-05T07:53:50.585Z,14.59
2022-08-05T07:58:58.912Z,14.70
2022-08-05T08:04:03.183Z,13.97
2022-08-05T08:09:07.632Z,13.74
2022-08-05T08:14:12.495Z,14.75
2022-08-05T08:20:21.020Z,15.30
2022-08-05T08:24:51.928Z,17.29
2022-08-05T08:30:05.571Z,17.11
2022-08-05T08:35:21.049Z,18.33
2022-08-05T08:40:31.197Z,19.07
2022-08-05T08:45:39.174Z,19.00
2022-08-05T08:51:03.251Z,19.82
2022-08-05T08:56:08.858Z,20.20
2022-08-05T09:01:15.855Z,20.45
2022-08-05T09:06:21.321Z,20.92
2022-08-05T09:11:53.472Z,21.85
2022-08-05T09:16:53.003Z,22.36
2022-08-05T09:22:22.912Z,23.06
2022-08-05T09:28:03.962Z,24.06
2022-08-05T09:33:04.745Z,24.43
2022-08-05T09:38:16.252Z,23.56
2022-08-05T09:43:41.139Z,24.35
2022-08-05T09:48:55.434Z,24.97
2022-08-05T09:54:11.527Z,25.28
2022-08-05T09:59:17.509Z,25.96
2022-08-05T10:04:29.203Z,26.62
2022-08-05T10:09:45.148Z,25.43
2022-08-05T10:14:48.938Z,24.77
2022-08-05T10:20:04.076Z,24.48
2022-08-05T10:25:14.378Z,24.21
2022-08-05T10:31:20.185Z,24.37
2022-08-05T10:35:44.076Z,24.41
2022-08-05T10:40:58.430Z,24.59
2022-08-05T10:46:06.795Z,24.43
2022-08-05T10:51:22.327Z,25.21
2022-08-05T10:56:28.702Z,25.73
2022-08-05T11:01:55.362Z,24.99
2022-08-05T11:07:09.288Z,25.97
2022-08-05T11:12:50.379Z,25.11
2022-08-05T11:18:11.715Z,24.10
2022-08-05T11:23:33.615Z,24.64
2022-08-05T11:29:37.315Z,24.49
2022-08-05T11:34:59.584Z,24.58
2022-08-05T11:40:04.731Z,24.99
2022-08-05T11:45:14.248Z,24.35
2022-08-05T11:50:27.457Z,24.50
2022-08-05T11:55:36.512Z,25.13
2022-08-05T12:00:44.324Z,24.60
2022-08-05T12:05:50.493Z,24.31
2022-08-05T12:10:58.203Z,24.62
2022-08-05T12:16:01.603Z,24.81
2022-08-05T12:21:12.706Z,24.94
2022-08-05T12:26:17.608Z,24.16
2022-08-05T12:31:28.039Z,23.70
2022-08-05T12:36:44.859Z,24.59
2022-08-05T12:41:51.314Z,24.35
2022-08-05T12:47:01.810Z,24.86
2022-08-05T12:52:12.037Z,24.78
2022-08-05T12:57:24.002Z,25.24
2022-08-05T13:02:30.454Z,25.42
2022-08-05T13:07:59.199Z,24.89
2022-08-05T13:12:58.922Z,25.02
2022-08-05T13:18:02.486Z,25.62
2022-08-05T13:23:07.318Z,25.85
2022-08-05T13:28:13.048Z,25.81
2022-08-05T13:34:20.218Z,25.61
2022-08-05T13:38:42.773Z,26.31
2022-08-05T13:43:54.726Z,27.08
2022-08-05T13:49:00.897Z,26.72
2022-08-05T13:54:12.935Z,25.98
2022-08-05T13:59:20.277Z,26.00
2022-08-05T14:04:41.597Z,25.22
2022-08-05T14:09:46.510Z,25.84
2022-08-05T14:14:52.088Z,25.87
2022-08-05T14:20:01.030Z,26.82
2022-08-05T14:25:21.717Z,26.51
2022-08-05T14:30:28.390Z,26.69
2022-08-05T14:35:37.280Z,26.80
2022-08-05T14:40:53.814Z,27.10
2022-08-05T14:45:58.545Z,27.31
2022-08-05T14:51:01.875Z,26.91
2022-08-05T14:56:07.041Z,26.57
2022-08-05T15:01:15.518Z,25.73
2022-08-05T15:06:20.318Z,26.60
2022-08-05T15:11:52.478Z,27.17
2022-08-05T15:16:56.785Z,26.93
2022-08-05T15:22:01.457Z,27.70
2022-08-05T15:27:09.064Z,28.19
2022-08-05T15:32:14.236Z,28.47
2022-08-05T15:37:22.202Z,27.95
2022-08-05T15:42:55.266Z,27.89
2022-08-05T15:48:04.523Z,28.31
2022-08-05T15:53:09.208Z,28.46
2022-08-05T15:58:16.789Z,28.65
2022-08-05T16:03:21.637Z,28.89
2022-08-05T16:08:25.083Z,29.06
2022-08-05T16:13:35.103Z,29.37
2022-08-05T16:18:51.700Z,29.31
2022-08-05T16:23:58.013Z,29.76
2022-08-05T16:29:02.467Z,30.93
2022-08-05T16:34:07.954Z,31.33
2022-08-05T16:39:13.835Z,31.94
2022-08-05T16:44:18.713Z,31.93
2022-08-05T16:49:26.698Z,32.92
2022-08-05T16:54:33.037Z,33.03
2022-08-05T17:00:00.311Z,33.18
2022-08-05T17:05:01.400Z,32.98
2022-08-05T17:10:07.118Z,34.14
2022-08-05T17:15:15.698Z,34.46
2022-08-05T17:20:24.963Z,34.87
2022-08-05T17:25:40.198Z,35.11
2022-08-05T17:30:52.059Z,35.32
2022-08-05T17:36:07.464Z,35.51
2022-08-05T17:42:16.619Z,35.55
2022-08-05T17:46:36.477Z,36.86
2022-08-05T17:51:41.452Z,36.84
2022-08-05T17:56:45.144Z,37.02
2022-08-05T18:01:52.551Z,37.54
2022-08-05T18:07:01.106Z,38.62
2022-08-05T18:12:05.072Z,40.85
2022-08-05T18:17:58.926Z,42.62
2022-08-05T18:22:36.208Z,42.76
2022-08-05T18:27:51.968Z,42.09
2022-08-05T18:33:00.418Z,43.82
2022-08-05T18:38:05.802Z,44.35
2022-08-05T18:43:16.351Z,45.29
2022-08-05T18:48:30.736Z,45.96
2022-08-05T18:53:45.789Z,45.88
2022-08-05T18:58:54.960Z,46.62
2022-08-05T19:04:05.365Z,46.84
2022-08-05T19:09:10.329Z,46.95
2022-08-05T19:14:52.132Z,48.12
2022-08-05T19:19:37.095Z,47.83
2022-08-05T19:24:56.323Z,48.09
2022-08-05T19:30:02.850Z,49.03
2022-08-05T19:35:08.334Z,48.83
2022-08-05T19:40:15.047Z,49.65
2022-08-05T19:45:18.649Z,49.73
2022-08-05T19:50:21.986Z,50.11
2022-08-05T19:56:14.733Z,50.59
2022-08-05T20:00:53.380Z,51.02
2022-08-05T20:05:56.806Z,51.23
2022-08-05T20:11:03.132Z,51.71
2022-08-05T20:16:06.915Z,52.23
2022-08-05T20:21:10.826Z,52.08
2022-08-05T20:26:17.264Z,52.43
2022-08-05T20:31:22.849Z,53.06
2022-08-05T20:36:31.828Z,53.09
2022-08-05T20:41:44.175Z,53.54
2022-08-05T20:46:48.768Z,53.52
2022-08-05T20:51:53.441Z,53.70
2022-08-05T20:56:59.085Z,53.83
2022-08-05T21:02:02.419Z,54.06
2022-08-05T21:07:08.955Z,54.41
2022-08-05T21:12:13.808Z,54.55
2022-08-05T21:17:20.581Z,54.68
2022-08-05T21:22:25.395Z,54.68
2022-08-05T21:27:38.601Z,54.13
2022-08-05T21:32:42.355Z,54.51
2022-08-05T21:37:53.174Z,54.96
2022-08-05T21:42:59.256Z,55.44
2022-08-05T21:48:06.417Z,55.79
2022-08-05T21:53:16.694Z,55.84
2022-08-05T21:58:24.990Z,55.97
2022-08-05T22:03:52.018Z,56.23
2022-08-05T22:08:56.695Z,56.48
2022-08-05T22:14:34.386Z,56.51
2022-08-05T22:19:57.414Z,56.88
2022-08-05T22:25:08.760Z,56.88
2022-08-05T22:30:35.359Z,56.95
2022-08-05T22:35:49.221Z,56.85
2022-08-05T22:40:54.858Z,57.14
2022-08-05T22:46:00.098Z,57.24
2022-08-05T22:51:07.050Z,57.48
2022-08-05T22:56:10.678Z,57.41
2022-08-05T23:01:17.937Z,57.47
2022-08-05T23:06:26.374Z,57.83
2022-08-05T23:11:30.209Z,57.77
2022-08-05T23:16:52.932Z,58.04
2022-08-05T23:21:56.210Z,57.65
2022-08-05T23:26:59.693Z,57.86
2022-08-05T23:32:06.054Z,58.19
2022-08-05T23:37:09.405Z,57.96
2022-08-05T23:42:14.812Z,57.60
2022-08-05T23:47:28.377Z,58.06
2022-08-05T23:52:49.745Z,57.94
2022-08-05T23:57:54.055Z,57.87
